Time;durP1;ratioP1;P1;durP2;ratioP2;P2;SDS_P1;SDS_P2;PMS_P1;PMS_P2;Temp;Humidity;BMP_temperature;BMP_pressure;BME280_temperature;BME280_humidity;BME280_pressure;Samples;Min_cycle;Max_cycle;Signal;HPM_P1;HPM_P2
2023/04/01 00:00:23;;;;;;;;;;;10.10;99.90;;;;;;4977923;28;20061;-69
2023/04/01 00:02:51;;;;;;;5.28;2.80;;;10.10;99.90;;;;;;4982176;28;19917;-68
2023/04/01 00:05:19;;;;;;;4.25;2.78;;;10.10;99.90;;;;;;4980542;28;20651;-68
2023/04/01 00:07:45;;;;;;;3.65;2.38;;;10.10;99.90;;;;;;4979615;28;20125;-68
2023/04/01 00:10:12;;;;;;;4.25;2.60;;;10.20;99.90;;;;;;4983876;28;20091;-69
2023/04/01 00:12:39;;;;;;;4.97;2.83;;;10.20;99.90;;;;;;4975755;28;20104;-69
2023/04/01 00:15:08;;;;;;;4.78;2.65;;;10.20;99.90;;;;;;4965282;28;20042;-69
2023/04/01 00:17:34;;;;;;;4.88;2.60;;;10.20;99.90;;;;;;4982119;28;20042;-69
2023/04/01 00:20:00;;;;;;;4.03;2.60;;;10.20;99.90;;;;;;4967475;28;20250;-69
2023/04/01 00:22:26;;;;;;;4.27;2.80;;;10.10;99.90;;;;;;4977015;28;20145;-68
2023/04/01 00:24:54;;;;;;;5.68;2.88;;;10.20;99.90;;;;;;4979712;28;20731;-69
2023/04/01 00:27:23;;;;;;;4.45;2.78;;;10.20;99.90;;;;;;4979600;28;20186;-68
2023/04/01 00:29:49;;;;;;;3.80;2.45;;;10.20;99.90;;;;;;4980365;28;20126;-68
2023/04/01 00:32:14;;;;;;;3.90;2.47;;;10.20;99.90;;;;;;4980669;28;20228;-69
2023/04/01 00:34:40;;;;;;;5.77;3.10;;;10.20;99.90;;;;;;4978325;28;20049;-69
2023/04/01 00:37:11;;;;;;;5.63;2.83;;;10.20;99.90;;;;;;4972870;28;20046;-68
2023/04/01 00:39:36;;;;;;;4.75;2.95;;;10.10;99.90;;;;;;4981641;28;20049;-68
2023/04/01 00:42:03;;;;;;;4.43;2.90;;;10.20;99.90;;;;;;4981560;28;20042;-69
2023/04/01 00:44:30;;;;;;;;;;;10.20;99.90;;;;;;4978674;28;20075;-68
2023/04/01 00:46:57;;;;;;;4.55;2.78;;;10.20;99.90;;;;;;4977591;28;19918;-69
2023/04/01 00:49:25;;;;;;;5.63;2.88;;;10.10;99.90;;;;;;4978080;28;20081;-68
2023/04/01 00:51:55;;;;;;;4.95;2.90;;;10.20;99.90;;;;;;4984476;28;20039;-68
2023/04/01 00:54:26;;;;;;;5.25;3.22;;;10.20;99.90;;;;;;4975624;28;20057;-68
2023/04/01 00:57:07;;;;;;;6.53;3.25;;;10.20;99.90;;;;;;4984000;28;20049;-68
2023/04/01 00:59:38;;;;;;;4.93;3.17;;;10.20;99.90;;;;;;4994202;28;20038;-68
2023/04/01 01:02:08;;;;;;;4.95;3.10;;;10.20;99.90;;;;;;4976522;28;20677;-68
2023/04/01 01:04:35;;;;;;;7.05;3.33;;;10.20;99.90;;;;;;4959267;28;20159;-69
2023/04/01 01:07:34;;;;;;;7.03;3.35;;;10.10;99.90;;;;;;4965085;28;20119;-69
2023/04/01 01:10:09;;;;;;;4.30;2.53;;;10.20;99.90;;;;;;4952456;28;20061;-68
2023/04/01 01:12:43;;;;;;;4.07;2.53;;;10.20;99.90;;;;;;4972546;28;20073;-69
2023/04/01 01:15:35;;;;;;;6.65;3.05;;;10.20;99.90;;;;;;4979255;28;20069;-68
2023/04/01 01:18:13;;;;;;;7.53;2.90;;;10.10;99.90;;;;;;4979810;28;20042;-69
2023/04/01 01:20:53;;;;;;;5.90;3.15;;;10.20;99.90;;;;;;4980468;28;20046;-69
2023/04/01 01:23:30;;;;;;;3.97;2.38;;;10.20;99.90;;;;;;4974095;28;20456;-69
2023/04/01 01:26:29;;;;;;;5.55;3.40;;;10.20;99.90;;;;;;4979820;28;20503;-69
2023/04/01 01:29:28;;;;;;;4.78;2.67;;;10.20;99.90;;;;;;4975986;28;20031;-69
2023/04/01 01:32:09;;;;;;;4.68;2.88;;;10.20;99.90;;;;;;4977931;28;20039;-68
2023/04/01 01:34:58;;;;;;;6.63;3.63;;;10.20;99.90;;;;;;4975218;28;20063;-69
2023/04/01 01:37:27;;;;;;;5.10;2.97;;;10.20;99.90;;;;;;4955716;28;20535;-68
2023/04/01 01:39:59;;;;;;;6.15;3.25;;;10.20;99.90;;;;;;4982028;28;20048;-69
2023/04/01 01:42:28;;;;;;;5.32;3.00;;;10.20;99.90;;;;;;4968599;28;20262;-68
2023/04/01 01:44:56;;;;;;;4.75;3.00;;;10.20;99.90;;;;;;4979719;28;20041;-69
2023/04/01 01:47:23;;;;;;;6.57;3.08;;;10.30;99.90;;;;;;4976126;28;20049;-68
2023/04/01 01:49:50;;;;;;;5.28;3.10;;;10.20;99.90;;;;;;4971122;28;20042;-69
2023/04/01 01:52:18;;;;;;;4.18;2.88;;;10.20;99.90;;;;;;4979258;28;20042;-69
2023/04/01 01:54:55;;;;;;;5.57;2.95;;;10.20;99.90;;;;;;4974287;28;20046;-69
2023/04/01 01:57:33;;;;;;;;;;;10.20;99.90;;;;;;4982146;28;20046;-68
2023/04/01 02:00:12;;;;;;;3.80;2.28;;;10.10;99.90;;;;;;4977960;28;19917;-69
2023/04/01 02:02:43;;;;;;;5.22;2.50;;;10.10;99.90;;;;;;4974639;28;20053;-68
2023/04/01 02:05:15;;;;;;;4.80;3.00;;;10.20;99.90;;;;;;4977896;28;20049;-69
2023/04/01 02:07:46;;;;;;;5.13;2.88;;;10.20;99.90;;;;;;4979440;28;20050;-68
2023/04/01 02:10:13;;;;;;;6.13;2.90;;;10.20;99.90;;;;;;4980175;28;20244;-69
2023/04/01 02:12:39;;;;;;;6.57;3.13;;;10.10;99.90;;;;;;4973654;28;20460;-68
2023/04/01 02:15:09;;;;;;;;;;;10.20;99.90;;;;;;4980993;28;20376;-69
2023/04/01 02:17:40;;;;;;;5.32;2.92;;;10.10;99.90;;;;;;4977849;28;20457;-68
2023/04/01 02:20:14;;;;;;;5.72;3.67;;;10.10;99.90;;;;;;4980431;28;20038;-68
2023/04/01 02:22:46;;;;;;;6.80;3.72;;;10.10;99.90;;;;;;4978074;28;20293;-70
2023/04/01 02:25:15;;;;;;;5.88;3.40;;;10.20;99.90;;;;;;4982639;28;20069;-68
2023/04/01 02:27:44;;;;;;;5.72;3.20;;;10.10;99.90;;;;;;4961135;28;20500;-69
2023/04/01 02:30:11;;;;;;;5.70;3.20;;;10.10;99.90;;;;;;4985685;28;20149;-69
2023/04/01 02:32:38;;;;;;;6.85;3.90;;;10.10;99.90;;;;;;4985744;28;20038;-68
2023/04/01 02:35:10;;;;;;;5.50;3.78;;;10.20;99.90;;;;;;4977775;28;20042;-68
2023/04/01 02:37:36;;;;;;;5.93;3.30;;;10.10;99.90;;;;;;4973836;28;20122;-68
2023/04/01 02:40:06;;;;;;;4.97;3.13;;;10.10;99.90;;;;;;4985986;28;20038;-68
2023/04/01 02:42:32;;;;;;;6.85;3.20;;;10.20;99.90;;;;;;4957297;28;20030;-68
2023/04/01 02:44:57;;;;;;;5.43;3.03;;;10.20;99.90;;;;;;4993346;28;20081;-68
2023/04/01 02:47:23;;;;;;;6.23;3.33;;;10.10;99.90;;;;;;4982787;28;20666;-68
2023/04/01 02:49:48;;;;;;;5.43;3.27;;;10.10;99.90;;;;;;4967399;28;20515;-69
2023/04/01 02:52:17;;;;;;;5.63;3.43;;;10.10;99.90;;;;;;4984937;28;20295;-68
2023/04/01 02:54:43;;;;;;;5.03;3.13;;;10.10;99.90;;;;;;4979832;28;20042;-69
2023/04/01 02:57:08;;;;;;;6.10;2.90;;;10.10;99.90;;;;;;4983779;28;20522;-68
2023/04/01 02:59:34;;;;;;;5.80;3.23;;;10.10;99.90;;;;;;4983781;28;20074;-68
2023/04/01 03:02:00;;;;;;;7.83;3.07;;;10.10;99.90;;;;;;4981023;28;20518;-69
2023/04/01 03:04:25;;;;;;;5.70;3.20;;;10.00;99.90;;;;;;4979480;28;20038;-68
2023/04/01 03:06:53;;;;;;;5.57;3.30;;;10.00;99.90;;;;;;4980942;28;20206;-69
2023/04/01 03:09:19;;;;;;;5.00;3.00;;;10.00;99.90;;;;;;4995933;28;20133;-68
2023/04/01 03:11:44;;;;;;;6.10;3.60;;;10.00;99.90;;;;;;4979746;28;20204;-68
2023/04/01 03:14:10;;;;;;;6.87;3.70;;;10.00;99.90;;;;;;4985409;28;20221;-68
2023/04/01 03:16:36;;;;;;;6.63;3.90;;;10.00;99.90;;;;;;4977504;28;20816;-68
2023/04/01 03:19:02;;;;;;;6.37;3.20;;;10.00;99.90;;;;;;4979380;28;20480;-68
2023/04/01 03:21:27;;;;;;;7.63;3.80;;;10.00;99.90;;;;;;4982962;28;20042;-68
2023/04/01 03:23:53;;;;;;;8.13;3.95;;;10.00;99.90;;;;;;4976346;28;20096;-69
2023/04/01 03:26:19;;;;;;;8.37;4.03;;;10.00;99.90;;;;;;4961520;28;20045;-69
2023/04/01 03:28:45;;;;;;;5.85;3.50;;;10.00;99.90;;;;;;4981693;28;20050;-69
2023/04/01 03:31:11;;;;;;;6.50;3.80;;;10.00;99.90;;;;;;4977088;28;20181;-68
2023/04/01 03:33:37;;;;;;;7.07;3.88;;;10.00;99.90;;;;;;4977835;28;20065;-69
2023/04/01 03:36:06;;;;;;;7.85;4.60;;;10.00;99.90;;;;;;4977941;28;20068;-68
2023/04/01 03:38:32;;;;;;;7.53;3.83;;;10.00;99.90;;;;;;4981775;28;20382;-68
2023/04/01 03:40:58;;;;;;;10.88;4.78;;;10.00;99.90;;;;;;4980902;28;20034;-69
2023/04/01 03:43:26;;;;;;;7.18;3.85;;;10.00;99.90;;;;;;4977984;28;20042;-69
2023/04/01 03:45:52;;;;;;;8.60;4.45;;;9.90;99.90;;;;;;4974634;28;20061;-69
2023/04/01 03:48:18;;;;;;;6.57;3.97;;;10.00;99.90;;;;;;4979835;28;20121;-68
2023/04/01 03:50:46;;;;;;;7.30;4.20;;;10.00;99.90;;;;;;4981895;28;20492;-69
2023/04/01 03:53:13;;;;;;;7.60;4.53;;;10.00;99.90;;;;;;4975987;28;20156;-69
2023/04/01 03:55:41;;;;;;;8.27;4.28;;;10.00;99.90;;;;;;4979582;28;20536;-68
2023/04/01 03:58:07;;;;;;;7.45;4.20;;;10.00;99.90;;;;;;4986239;28;20046;-69
2023/04/01 04:00:33;;;;;;;7.55;4.38;;;10.00;99.90;;;;;;4977043;28;20100;-69
2023/04/01 04:03:02;;;;;;;7.90;4.35;;;9.90;99.90;;;;;;4980832;28;20050;-68
2023/04/01 04:05:28;;;;;;;6.70;4.00;;;10.00;99.90;;;;;;4985174;28;20096;-69
2023/04/01 04:07:54;;;;;;;6.33;4.10;;;9.90;99.90;;;;;;4981045;28;20419;-69
2023/04/01 04:10:20;;;;;;;8.27;4.75;;;9.90;99.90;;;;;;4978460;28;20053;-68
2023/04/01 04:12:46;;;;;;;8.88;4.25;;;10.00;99.90;;;;;;4974132;28;20511;-69
2023/04/01 04:15:12;;;;;;;8.37;4.43;;;9.90;99.90;;;;;;4980657;28;20133;-68
2023/04/01 04:17:38;;;;;;;10.48;4.97;;;10.00;99.90;;;;;;4974552;28;20069;-68
2023/04/01 04:20:04;;;;;;;9.73;5.15;;;10.00;99.90;;;;;;4980517;28;20108;-69
2023/04/01 04:22:29;;;;;;;8.27;4.60;;;9.90;99.90;;;;;;4963064;28;20034;-68
2023/04/01 04:24:55;;;;;;;7.93;4.60;;;10.00;99.90;;;;;;4983207;28;20042;-68
2023/04/01 04:27:21;;;;;;;9.03;4.67;;;9.90;99.90;;;;;;4980126;28;20388;-70
2023/04/01 04:29:46;;;;;;;9.80;4.83;;;9.90;99.90;;;;;;4977949;28;20042;-68
2023/04/01 04:32:12;;;;;;;8.43;4.30;;;9.90;99.90;;;;;;4979689;28;20118;-68
2023/04/01 04:34:38;;;;;;;9.80;5.20;;;10.00;99.90;;;;;;4962787;28;20154;-69
2023/04/01 04:37:04;;;;;;;8.10;4.37;;;9.90;99.90;;;;;;4969978;28;20034;-69
2023/04/01 04:39:30;;;;;;;9.05;5.13;;;9.90;99.90;;;;;;4981470;28;20296;-68
2023/04/01 04:41:55;;;;;;;8.35;4.50;;;10.00;99.90;;;;;;4978870;28;20065;-68
2023/04/01 04:44:21;;;;;;;10.63;4.75;;;9.90;99.90;;;;;;4979117;28;20070;-68
2023/04/01 04:46:47;;;;;;;8.65;4.88;;;9.90;99.90;;;;;;4978957;28;20056;-68
2023/04/01 04:49:13;;;;;;;7.63;4.73;;;10.00;99.90;;;;;;4985384;28;20094;-68
2023/04/01 04:51:39;;;;;;;11.70;5.80;;;9.90;99.90;;;;;;4978991;28;20061;-68
2023/04/01 04:54:05;;;;;;;11.00;6.03;;;9.90;99.90;;;;;;4978376;28;20048;-68
2023/04/01 04:56:32;;;;;;;;;;;9.90;99.90;;;;;;4981033;28;20060;-68
2023/04/01 04:58:58;;;;;;;10.00;5.22;;;9.90;99.90;;;;;;4973171;28;19918;-68
2023/04/01 05:01:24;;;;;;;;;;;9.90;99.90;;;;;;4976357;28;20137;-68
2023/04/01 05:03:52;;;;;;;10.30;5.53;;;9.90;99.90;;;;;;4978803;28;19972;-68
2023/04/01 05:06:20;;;;;;;8.60;5.53;;;9.90;99.90;;;;;;4978236;28;20089;-68
2023/04/01 05:08:47;;;;;;;9.70;5.68;;;9.90;99.90;;;;;;4979830;28;20053;-68
2023/04/01 05:11:25;;;;;;;11.82;7.00;;;9.90;99.90;;;;;;4978615;28;20245;-68
2023/04/01 05:13:51;;;;;;;12.48;6.63;;;9.90;99.90;;;;;;4979200;28;20102;-69
2023/04/01 05:16:19;;;;;;;12.57;6.72;;;9.90;99.90;;;;;;4963406;28;20457;-68
2023/04/01 05:18:46;;;;;;;10.50;6.15;;;9.90;99.90;;;;;;4979037;28;20046;-68
2023/04/01 05:21:12;;;;;;;;;;;9.90;99.90;;;;;;4979253;28;20222;-68
2023/04/01 05:23:39;;;;;;;12.80;6.15;;;9.90;99.90;;;;;;4978777;28;19984;-68
2023/04/01 05:26:06;;;;;;;;;;;9.90;99.90;;;;;;4980866;28;20053;-68
2023/04/01 05:28:32;;;;;;;12.02;6.72;;;9.90;99.90;;;;;;4978180;28;19922;-68
2023/04/01 05:31:03;;;;;;;13.13;6.80;;;9.90;99.90;;;;;;4977841;28;20050;-68
2023/04/01 05:33:29;;;;;;;13.07;6.55;;;9.90;99.90;;;;;;4979521;28;20583;-68
2023/04/01 05:35:55;;;;;;;;;;;9.80;99.90;;;;;;4979018;28;20042;-68
2023/04/01 05:38:20;;;;;;;11.32;6.00;;;9.90;99.90;;;;;;4970059;28;19925;-68
2023/04/01 05:40:46;;;;;;;10.80;5.97;;;9.90;99.90;;;;;;4978620;28;20049;-68
2023/04/01 05:43:12;;;;;;;11.90;6.40;;;9.90;99.90;;;;;;4979562;28;20496;-68
2023/04/01 05:45:38;;;;;;;11.85;6.32;;;9.90;99.90;;;;;;4978626;28;20193;-68
2023/04/01 05:48:03;;;;;;;11.30;6.20;;;9.90;99.90;;;;;;4992918;28;20042;-68
2023/04/01 05:50:29;;;;;;;14.02;6.15;;;9.90;99.90;;;;;;4978159;28;20474;-68
2023/04/01 05:52:55;;;;;;;12.23;6.93;;;9.90;99.90;;;;;;4979441;28;20038;-68
2023/04/01 05:55:20;;;;;;;11.27;6.10;;;9.90;99.90;;;;;;4982890;28;20064;-68
2023/04/01 05:57:48;;;;;;;14.07;6.10;;;9.90;99.90;;;;;;4981481;28;20145;-68
2023/04/01 06:00:14;;;;;;;13.38;6.75;;;9.90;99.90;;;;;;4980383;28;20120;-68
2023/04/01 06:02:41;;;;;;;;;;;9.90;99.90;;;;;;4981891;28;20069;-68
2023/04/01 06:05:19;;;;;;;12.32;6.28;;;9.90;99.90;;;;;;4984581;28;20016;-68
2023/04/01 06:07:45;;;;;;;13.40;6.93;;;9.90;99.90;;;;;;4979588;28;20038;-68
2023/04/01 06:10:17;;;;;;;16.40;7.07;;;9.90;99.90;;;;;;4984111;28;20041;-68
2023/04/01 06:13:11;;;;;;;10.80;5.93;;;9.90;99.90;;;;;;4979887;28;20129;-68
2023/04/01 06:15:42;;;;;;;14.40;7.95;;;10.00;99.90;;;;;;4979619;28;20133;-68
2023/04/01 06:18:46;;;;;;;13.25;6.68;;;9.90;99.90;;;;;;4978091;28;20616;-68
2023/04/01 06:21:15;;;;;;;12.95;7.10;;;10.00;99.90;;;;;;4967932;28;20057;-68
2023/04/01 06:24:01;;;;;;;12.95;6.95;;;10.00;99.90;;;;;;4982942;28;20735;-68
2023/04/01 06:26:35;;;;;;;15.90;7.55;;;10.00;99.90;;;;;;4982646;28;20108;-69
2023/04/01 06:29:28;;;;;;;12.07;6.32;;;10.00;99.90;;;;;;4983535;28;20239;-68
2023/04/01 06:32:15;;;;;;;9.85;5.65;;;10.00;99.90;;;;;;4980268;28;20069;-68
2023/04/01 06:34:43;;;;;;;12.70;5.55;;;10.00;99.90;;;;;;4980899;28;20504;-68
2023/04/01 06:37:15;;;;;;;8.90;4.75;;;10.00;99.90;;;;;;4972971;28;20159;-69
2023/04/01 06:39:50;;;;;;;10.23;5.80;;;9.90;99.90;;;;;;4980789;28;20046;-68
2023/04/01 06:42:30;;;;;;;10.48;4.80;;;10.10;99.90;;;;;;4964479;28;20101;-68
2023/04/01 06:45:24;;;;;;;9.95;5.30;;;10.10;99.90;;;;;;4979874;28;20050;-68
2023/04/01 06:48:17;;;;;;;11.00;5.18;;;10.10;99.90;;;;;;4980581;28;20058;-68
2023/04/01 06:50:55;;;;;;;9.30;4.60;;;10.10;99.90;;;;;;4979151;28;20050;-68
2023/04/01 06:53:52;;;;;;;8.15;4.38;;;10.10;99.90;;;;;;4981315;28;20125;-68
2023/04/01 06:56:24;;;;;;;9.18;5.07;;;10.10;99.90;;;;;;4997440;28;20630;-69
2023/04/01 06:59:10;;;;;;;9.15;5.05;;;10.10;99.90;;;;;;4981661;28;20108;-68
2023/04/01 07:01:44;;;;;;;9.73;5.18;;;10.20;99.90;;;;;;4979247;28;20640;-68
2023/04/01 07:04:38;;;;;;;9.60;4.70;;;10.20;99.90;;;;;;4980888;28;20137;-68
2023/04/01 07:07:31;;;;;;;8.40;4.95;;;10.20;99.90;;;;;;4982268;28;20975;-68
2023/04/01 07:10:02;;;;;;;10.57;5.47;;;10.20;99.90;;;;;;4981477;28;20141;-68
2023/04/01 07:12:31;;;;;;;7.03;3.90;;;10.20;99.90;;;;;;4977322;28;20054;-68
2023/04/01 07:15:01;;;;;;;8.25;4.32;;;10.30;99.90;;;;;;4982838;28;20038;-68
2023/04/01 07:17:36;;;;;;;6.07;3.67;;;10.20;99.90;;;;;;4982485;28;20049;-68
2023/04/01 07:20:16;;;;;;;8.32;4.50;;;10.20;99.90;;;;;;4984031;28;20049;-70
2023/04/01 07:22:48;;;;;;;7.65;3.90;;;10.20;99.90;;;;;;4979869;28;20069;-68
2023/04/01 07:25:22;;;;;;;12.88;4.38;;;10.20;99.90;;;;;;4980031;28;20050;-68
2023/04/01 07:27:47;;;;;;;7.93;4.72;;;10.20;99.90;;;;;;4978432;28;20054;-68
2023/04/01 07:30:17;;;;;;;10.02;4.80;;;10.20;99.90;;;;;;4981919;28;20345;-74
2023/04/01 07:33:11;;;;;;;8.27;4.85;;;10.20;99.90;;;;;;4965573;28;20042;-69
2023/04/01 07:35:52;;;;;;;9.02;4.93;;;10.20;99.90;;;;;;4983100;28;20038;-70
2023/04/01 07:38:44;;;;;;;8.23;4.47;;;10.20;99.90;;;;;;4976615;28;20085;-68
2023/04/01 07:41:15;;;;;;;9.98;5.40;;;10.20;99.90;;;;;;4973143;28;20097;-68
2023/04/01 07:43:53;;;;;;;11.85;5.63;;;10.30;99.90;;;;;;5045351;23;20054;-71
2023/04/01 07:46:40;;;;;;;10.18;6.30;;;10.40;99.90;;;;;;5004207;28;20034;-75
2023/04/01 07:49:27;;;;;;;13.60;7.25;;;10.40;99.90;;;;;;4987923;28;20098;-71
2023/04/01 07:52:00;;;;;;;13.75;7.10;;;10.50;99.90;;;;;;4987781;28;20096;-71
2023/04/01 07:54:46;;;;;;;12.10;6.70;;;10.60;99.90;;;;;;4966998;28;20038;-71
2023/04/01 07:57:19;;;;;;;10.25;6.05;;;10.70;99.90;;;;;;4979003;28;20491;-71
2023/04/01 08:00:00;;;;;;;12.73;6.95;;;10.70;99.90;;;;;;4982806;28;20054;-71
2023/04/01 08:02:34;;;;;;;13.00;7.13;;;10.80;99.90;;;;;;4999870;28;20052;-71
2023/04/01 08:05:18;;;;;;;15.50;8.40;;;10.80;99.90;;;;;;5000783;28;20061;-71
2023/04/01 08:08:20;;;;;;;14.13;7.70;;;10.80;99.90;;;;;;5001903;28;20041;-71
2023/04/01 08:11:12;;;;;;;14.73;7.15;;;10.90;99.90;;;;;;4952744;28;20054;-71
2023/04/01 08:13:51;;;;;;;14.32;7.60;;;10.90;99.90;;;;;;4966051;28;20037;-71
2023/04/01 08:16:33;;;;;;;14.50;7.53;;;11.00;99.90;;;;;;4996601;28;20034;-71
2023/04/01 08:19:20;;;;;;;12.75;6.88;;;11.00;99.90;;;;;;4980160;28;20064;-71
2023/04/01 08:22:00;;;;;;;15.48;8.70;;;11.10;99.90;;;;;;4975176;28;20155;-71
2023/04/01 08:24:34;;;;;;;16.70;8.25;;;11.20;99.90;;;;;;4997474;28;20447;-71
2023/04/01 08:27:05;;;;;;;16.60;8.32;;;11.20;99.90;;;;;;5001051;28;20121;-71
2023/04/01 08:29:50;;;;;;;13.35;7.07;;;11.30;99.90;;;;;;4998232;28;20042;-71
2023/04/01 08:32:20;;;;;;;11.57;5.93;;;11.30;99.90;;;;;;4979919;28;20069;-71
2023/04/01 08:34:53;;;;;;;11.30;6.38;;;11.40;99.90;;;;;;4998078;28;20034;-71
2023/04/01 08:37:28;;;;;;;11.75;5.93;;;11.40;99.90;;;;;;4984425;28;20053;-71
2023/04/01 08:40:29;;;;;;;10.70;5.85;;;11.40;99.90;;;;;;4976707;28;20065;-71
2023/04/01 08:43:43;;;;;;;11.57;5.78;;;11.50;99.90;;;;;;4991538;28;20054;-71
2023/04/01 08:46:17;;;;;;;11.13;6.70;;;11.50;99.90;;;;;;4997623;28;20041;-71
2023/04/01 08:49:12;;;;;;;12.63;6.97;;;11.50;99.90;;;;;;4976638;28;20050;-71
2023/04/01 08:52:10;;;;;;;15.20;7.63;;;11.50;99.90;;;;;;4928277;28;20170;-71
2023/04/01 08:55:13;;;;;;;13.27;7.30;;;11.50;99.90;;;;;;4955171;28;20053;-71
2023/04/01 08:58:23;;;;;;;12.38;7.13;;;11.60;99.90;;;;;;4990014;28;20550;-71
2023/04/01 09:01:01;;;;;;;11.73;7.03;;;11.60;99.90;;;;;;4953766;28;20951;-71
2023/04/01 09:04:03;;;;;;;12.93;6.85;;;11.70;99.90;;;;;;4981013;28;20099;-71
2023/04/01 09:06:57;;;;;;;13.75;7.38;;;11.70;99.90;;;;;;4977912;28;20042;-71
2023/04/01 09:09:40;;;;;;;12.32;6.93;;;11.70;99.90;;;;;;4981871;28;20335;-71
2023/04/01 09:12:19;;;;;;;12.57;6.53;;;11.70;99.90;;;;;;4966184;28;20111;-71
2023/04/01 09:15:09;;;;;;;10.82;5.60;;;11.70;99.90;;;;;;4960445;28;20128;-71
2023/04/01 09:17:54;;;;;;;10.73;5.70;;;11.70;99.90;;;;;;4979843;28;20069;-71
2023/04/01 09:20:41;;;;;;;12.98;5.60;;;11.70;99.90;;;;;;4981697;28;20475;-70
2023/04/01 09:23:28;;;;;;;10.50;5.90;;;11.70;99.90;;;;;;4977313;28;20042;-71
2023/04/01 09:26:08;;;;;;;10.88;6.25;;;11.70;99.90;;;;;;4998442;28;20056;-71
2023/04/01 09:28:41;;;;;;;10.48;5.68;;;11.60;99.90;;;;;;4978817;28;20539;-70
2023/04/01 09:31:39;;;;;;;8.25;5.03;;;11.60;99.90;;;;;;4956910;28;20125;-71
2023/04/01 09:34:26;;;;;;;8.35;4.13;;;11.60;99.90;;;;;;4973529;28;20062;-71
2023/04/01 09:37:21;;;;;;;15.77;4.00;;;11.50;99.90;;;;;;4996899;28;20042;-71
2023/04/01 09:40:10;;;;;;;6.53;3.63;;;11.40;99.90;;;;;;5002538;28;20048;-71
2023/04/01 09:43:06;;;;;;;6.47;3.30;;;11.30;99.90;;;;;;4974317;28;20254;-71
2023/04/01 09:45:31;;;;;;;7.68;4.03;;;11.30;99.90;;;;;;4984430;28;20073;-71
2023/04/01 09:48:17;;;;;;;6.93;4.10;;;11.20;99.90;;;;;;4985693;28;20084;-71
2023/04/01 09:50:50;;;;;;;8.18;4.50;;;11.20;99.90;;;;;;4984872;28;20057;-71
2023/04/01 09:53:25;;;;;;;7.22;3.67;;;11.20;99.90;;;;;;5005311;28;20038;-71
2023/04/01 09:56:18;;;;;;;7.20;3.60;;;11.20;99.90;;;;;;4989792;28;20066;-71
2023/04/01 09:58:47;;;;;;;6.97;4.05;;;11.10;99.90;;;;;;4981888;28;20072;-71
2023/04/01 10:01:24;;;;;;;7.43;3.97;;;11.10;99.90;;;;;;4981240;28;20049;-71
2023/04/01 10:04:24;;;;;;;6.38;3.55;;;11.00;99.90;;;;;;4978438;28;20073;-71
2023/04/01 10:07:02;;;;;;;5.22;2.83;;;11.00;99.90;;;;;;4979215;28;20529;-68
2023/04/01 10:10:04;;;;;;;5.88;3.45;;;11.00;99.90;;;;;;4974810;28;20456;-70
2023/04/01 10:13:07;;;;;;;6.03;3.45;;;10.90;99.90;;;;;;4983151;28;20104;-70
2023/04/01 10:16:03;;;;;;;5.22;3.30;;;10.90;99.90;;;;;;4982244;28;20029;-70
2023/04/01 10:19:03;;;;;;;5.07;2.90;;;10.90;99.90;;;;;;4985509;28;22161;-71
2023/04/01 10:21:41;;;;;;;5.70;3.28;;;10.90;99.90;;;;;;5000674;28;20263;-70
2023/04/01 10:24:28;;;;;;;5.13;2.80;;;10.90;99.90;;;;;;4983978;28;20627;-70
2023/04/01 10:27:05;;;;;;;5.25;2.80;;;10.90;99.90;;;;;;4993727;28;20096;-70
2023/04/01 10:29:52;;;;;;;4.70;2.70;;;10.90;99.90;;;;;;4994422;28;20476;-70
2023/04/01 10:32:45;;;;;;;5.07;2.35;;;10.90;99.90;;;;;;5001813;28;20082;-70
2023/04/01 10:35:22;;;;;;;3.42;2.20;;;10.80;99.90;;;;;;4977923;28;20496;-70
2023/04/01 10:38:16;;;;;;;4.60;2.30;;;10.80;99.90;;;;;;4983274;28;20141;-70
2023/04/01 10:41:09;;;;;;;4.55;2.22;;;10.80;99.90;;;;;;4982213;28;20046;-70
2023/04/01 10:43:56;;;;;;;3.90;2.22;;;10.80;99.90;;;;;;4983894;28;20041;-70
2023/04/01 10:46:40;;;;;;;3.65;2.17;;;10.80;99.90;;;;;;4982283;28;20368;-70
2023/04/01 10:49:27;;;;;;;4.05;2.25;;;10.70;99.90;;;;;;4979093;28;20054;-70
2023/04/01 10:52:51;;;;;;;4.80;2.17;;;10.70;99.90;;;;;;4980581;28;20050;-70
2023/04/01 10:55:37;;;;;;;5.55;2.35;;;10.70;99.90;;;;;;4942693;28;20087;-70
2023/04/01 10:58:18;;;;;;;3.85;2.10;;;10.80;99.90;;;;;;4983749;28;20491;-70
2023/04/01 11:01:07;;;;;;;4.45;2.38;;;10.80;99.90;;;;;;4982613;28;20516;-70
2023/04/01 11:04:13;;;;;;;3.50;1.88;;;10.80;99.90;;;;;;4964194;28;20046;-72
2023/04/01 11:07:02;;;;;;;4.50;2.10;;;10.80;99.90;;;;;;4981759;28;20112;-77
2023/04/01 11:09:46;;;;;;;5.93;2.20;;;10.70;99.90;;;;;;5001903;28;20418;-72
2023/04/01 11:12:54;;;;;;;4.72;2.38;;;10.70;99.90;;;;;;4979605;28;20229;-71
2023/04/01 11:15:38;;;;;;;3.58;2.05;;;10.70;99.90;;;;;;4978840;28;20046;-70
2023/04/01 11:18:42;;;;;;;6.15;2.13;;;10.70;99.90;;;;;;4981341;28;20111;-70
2023/04/01 11:21:36;;;;;;;2.20;1.52;;;10.70;99.90;;;;;;4983133;28;20059;-70
2023/04/01 11:24:12;;;;;;;2.60;1.55;;;10.60;99.90;;;;;;4976862;28;20050;-70
2023/04/01 11:26:52;;;;;;;4.28;1.58;;;10.60;99.90;;;;;;5000677;28;20060;-70
2023/04/01 11:30:00;;;;;;;3.00;1.50;;;10.60;99.90;;;;;;4984864;28;20043;-71
2023/04/01 11:32:49;;;;;;;2.58;1.75;;;10.60;99.90;;;;;;4940126;28;20126;-70
2023/04/01 11:35:39;;;;;;;5.75;1.75;;;10.70;99.90;;;;;;4982687;28;20117;-71
2023/04/01 11:38:25;;;;;;;2.90;1.77;;;10.70;99.90;;;;;;4992173;28;20100;-70
2023/04/01 11:41:28;;;;;;;4.05;1.98;;;10.70;99.90;;;;;;4987582;28;20465;-70
2023/04/01 11:44:12;;;;;;;2.95;1.75;;;10.80;99.90;;;;;;4981739;28;20100;-70
2023/04/01 11:47:01;;;;;;;2.60;1.30;;;10.90;99.90;;;;;;5002855;28;20041;-70
2023/04/01 11:49:49;;;;;;;2.78;1.35;;;11.10;99.90;;;;;;4964865;28;20057;-70
2023/04/01 11:52:46;;;;;;;1.90;1.05;;;11.00;99.90;;;;;;5002873;28;20128;-70
2023/04/01 11:55:25;;;;;;;4.30;1.55;;;11.00;99.90;;;;;;4984989;28;20050;-70
2023/04/01 11:58:04;;;;;;;3.65;1.23;;;11.00;99.90;;;;;;4998095;28;20042;-70
2023/04/01 12:00:41;;;;;;;2.13;1.20;;;11.00;99.90;;;;;;4962708;28;20033;-70
2023/04/01 12:03:35;;;;;;;4.40;1.45;;;11.00;99.90;;;;;;4984379;28;20381;-70
2023/04/01 12:06:16;;;;;;;3.80;1.50;;;11.00;99.90;;;;;;4983250;28;20500;-70
2023/04/01 12:08:59;;;;;;;3.13;1.50;;;11.00;99.90;;;;;;4981929;28;20654;-70
2023/04/01 12:11:30;;;;;;;2.75;1.25;;;11.00;99.90;;;;;;4985673;28;20377;-70
2023/04/01 12:14:26;;;;;;;2.00;1.23;;;11.00;99.90;;;;;;5001508;28;20045;-70
2023/04/01 12:17:12;;;;;;;2.42;1.33;;;10.90;99.90;;;;;;4981180;28;20128;-70
2023/04/01 12:20:05;;;;;;;1.73;1.10;;;10.90;99.90;;;;;;4984841;28;20742;-70
2023/04/01 12:22:44;;;;;;;2.10;1.23;;;10.90;99.90;;;;;;5004592;28;20038;-70
2023/04/01 12:25:19;;;;;;;2.65;1.40;;;10.90;99.90;;;;;;4982995;28;20337;-70
2023/04/01 12:28:23;;;;;;;3.88;1.50;;;10.90;99.90;;;;;;4984157;28;20068;-70
2023/04/01 12:31:10;;;;;;;3.08;1.40;;;10.90;99.90;;;;;;4997172;28;20042;-70
2023/04/01 12:33:45;;;;;;;1.88;1.13;;;10.80;99.90;;;;;;5000580;28;20166;-70
2023/04/01 12:36:40;;;;;;;2.47;1.25;;;10.80;99.90;;;;;;4984072;28;20045;-70
2023/04/01 12:39:21;;;;;;;3.58;1.23;;;10.70;99.90;;;;;;4998052;28;20049;-70
2023/04/01 12:41:46;;;;;;;2.45;1.23;;;10.70;99.90;;;;;;4984691;28;20334;-70
2023/04/01 12:44:28;;;;;;;2.63;1.10;;;10.60;99.90;;;;;;4980173;28;20368;-70
2023/04/01 12:47:13;;;;;;;2.65;1.30;;;10.70;99.90;;;;;;4978826;28;20499;-70
2023/04/01 12:50:07;;;;;;;2.50;1.30;;;10.60;99.90;;;;;;4983666;28;20078;-70
2023/04/01 12:52:32;;;;;;;4.70;1.42;;;10.60;99.90;;;;;;5000837;28;20042;-70
2023/04/01 12:55:17;;;;;;;3.67;1.67;;;10.60;99.90;;;;;;4983626;28;20049;-70
2023/04/01 12:58:10;;;;;;;2.40;1.30;;;10.60;99.90;;;;;;5000600;28;20041;-70
2023/04/01 13:00:45;;;;;;;3.10;1.30;;;10.60;99.90;;;;;;4998310;28;20385;-70
2023/04/01 13:03:48;;;;;;;2.50;1.67;;;10.50;99.90;;;;;;5000367;28;20447;-70
2023/04/01 13:06:26;;;;;;;2.40;1.35;;;10.50;99.90;;;;;;4975905;28;20073;-70
2023/04/01 13:08:59;;;;;;;;;;;10.50;99.90;;;;;;4991420;28;20054;-70
2023/04/01 13:11:25;;;;;;;2.17;1.63;;;10.50;99.90;;;;;;4999510;28;19917;-70
2023/04/01 13:14:02;;;;;;;1.88;1.23;;;10.50;99.90;;;;;;4978847;28;20125;-70
2023/04/01 13:16:46;;;;;;;3.03;1.42;;;10.50;99.90;;;;;;4983864;28;20058;-70
2023/04/01 13:19:42;;;;;;;2.22;1.40;;;10.50;99.90;;;;;;5000127;28;20375;-70
2023/04/01 13:22:56;;;;;;;3.20;1.42;;;10.50;99.90;;;;;;4995149;28;20376;-70
2023/04/01 13:25:36;;;;;;;2.28;1.20;;;10.50;99.90;;;;;;4929801;28;20106;-70
2023/04/01 13:28:07;;;;;;;2.53;1.63;;;10.50;99.90;;;;;;4997736;28;20275;-71
2023/04/01 13:30:43;;;;;;;2.97;1.65;;;10.60;99.90;;;;;;4978347;28;20464;-70
2023/04/01 13:33:35;;;;;;;2.50;1.45;;;10.60;99.90;;;;;;4972568;28;20406;-70
2023/04/01 13:36:18;;;;;;;4.05;1.30;;;10.60;99.90;;;;;;4982820;28;20033;-70
2023/04/01 13:39:15;;;;;;;2.70;1.50;;;10.60;99.90;;;;;;4994764;28;20050;-70